createdAt,value
2022-09-20T00:01:28.519Z,12.98
2022-09-20T00:03:58.588Z,12.97
2022-09-20T00:06:29.571Z,12.94
2022-09-20T00:08:59.656Z,12.94
2022-09-20T00:11:30.307Z,12.98
2022-09-20T00:14:01.319Z,12.95
2022-09-20T00:16:32.556Z,12.94
2022-09-20T00:19:04.259Z,12.92
2022-09-20T00:21:35.037Z,12.92
2022-09-20T00:24:04.046Z,12.95
2022-09-20T00:26:32.181Z,12.94
2022-09-20T00:29:01.888Z,12.91
2022-09-20T00:31:30.299Z,12.93
2022-09-20T00:34:17.419Z,12.92
2022-09-20T00:36:47.390Z,12.86
2022-09-20T00:39:16.637Z,12.81
2022-09-20T00:41:45.580Z,12.77
2022-09-20T00:44:55.083Z,12.66
2022-09-20T00:47:30.257Z,12.65
2022-09-20T00:50:04.687Z,12.64
2022-09-20T00:52:33.816Z,12.63
2022-09-20T00:55:04.753Z,12.60
2022-09-20T00:57:35.554Z,12.60
2022-09-20T01:00:08.246Z,12.59
2022-09-20T01:02:40.041Z,12.61
2022-09-20T01:05:11.044Z,12.59
2022-09-20T01:07:40.284Z,12.64
2022-09-20T01:10:08.865Z,12.57
2022-09-20T01:12:40.798Z,12.49
2022-09-20T01:15:12.722Z,12.47
2022-09-20T01:17:44.299Z,12.42
2022-09-20T01:20:17.256Z,12.48
2022-09-20T01:23:29.996Z,12.45
2022-09-20T01:26:27.789Z,12.39
2022-09-20T01:29:03.550Z,12.31
2022-09-20T01:31:36.142Z,12.28
2022-09-20T01:34:09.850Z,12.27
2022-09-20T01:36:45.020Z,12.24
2022-09-20T01:39:22.588Z,12.27
2022-09-20T01:41:54.507Z,12.17
2022-09-20T01:44:32.190Z,12.12
2022-09-20T01:47:12.270Z,12.07
2022-09-20T01:49:50.250Z,12.12
2022-09-20T01:52:53.446Z,12.09
2022-09-20T01:55:43.928Z,12.07
2022-09-20T01:58:37.169Z,12.07
2022-09-20T02:01:36.864Z,11.95
2022-09-20T02:04:23.984Z,11.93
2022-09-20T02:07:12.335Z,11.90
2022-09-20T02:10:07.821Z,11.87
2022-09-20T02:12:54.324Z,11.80
2022-09-20T02:15:42.981Z,11.79
2022-09-20T02:18:30.669Z,11.76
2022-09-20T02:21:05.487Z,11.75
2022-09-20T02:23:50.809Z,11.72
2022-09-20T02:26:35.120Z,11.71
2022-09-20T02:29:20.143Z,11.63
2022-09-20T02:32:05.096Z,11.59
2022-09-20T02:34:48.049Z,11.57
2022-09-20T02:37:38.044Z,11.56
2022-09-20T02:40:20.994Z,11.54
2022-09-20T02:42:57.421Z,11.48
2022-09-20T02:45:32.506Z,11.41
2022-09-20T02:48:05.093Z,11.46
2022-09-20T02:50:43.594Z,11.44
2022-09-20T02:53:31.553Z,11.43
2022-09-20T02:56:05.986Z,11.38
2022-09-20T02:58:43.732Z,11.47
2022-09-20T03:01:23.278Z,11.39
2022-09-20T03:04:01.131Z,11.41
2022-09-20T03:06:39.861Z,11.35
2022-09-20T03:09:15.108Z,11.44
2022-09-20T03:11:50.129Z,11.38
2022-09-20T03:14:23.320Z,11.41
2022-09-20T03:17:05.792Z,11.33
2022-09-20T03:19:48.653Z,11.33
2022-09-20T03:22:31.492Z,11.27
2022-09-20T03:25:21.948Z,11.25
2022-09-20T03:28:01.634Z,11.25
2022-09-20T03:30:42.793Z,11.26
2022-09-20T03:33:22.162Z,11.19
2022-09-20T03:36:05.898Z,11.27
2022-09-20T03:38:49.138Z,11.28
2022-09-20T03:41:35.174Z,11.15
2022-09-20T03:44:21.743Z,11.15
2022-09-20T03:46:58.492Z,11.24
2022-09-20T03:50:04.903Z,11.17
2022-09-20T03:53:02.824Z,11.15
2022-09-20T03:55:59.346Z,11.14
2022-09-20T03:58:48.894Z,11.09
2022-09-20T04:01:39.717Z,11.10
2022-09-20T04:04:16.716Z,11.13
2022-09-20T04:07:16.729Z,11.10
2022-09-20T04:10:14.865Z,11.16
2022-09-20T04:12:58.574Z,11.04
2022-09-20T04:15:36.775Z,11.05
2022-09-20T04:18:14.001Z,10.94
2022-09-20T04:20:47.540Z,10.90
2022-09-20T04:23:27.147Z,10.94
2022-09-20T04:25:55.650Z,10.97
2022-09-20T04:28:29.981Z,10.91
2022-09-20T04:31:06.811Z,10.91
2022-09-20T04:33:41.420Z,10.89
2022-09-20T04:36:29.766Z,10.98
2022-09-20T04:39:06.615Z,10.82
2022-09-20T04:42:31.289Z,10.85
2022-09-20T04:45:30.791Z,10.84
2022-09-20T04:48:28.035Z,10.85
2022-09-20T04:51:26.007Z,10.85
2022-09-20T04:54:41.549Z,10.89
2022-09-20T04:57:42.517Z,10.88
2022-09-20T05:00:15.233Z,10.93
2022-09-20T05:03:18.676Z,10.79
2022-09-20T05:06:09.025Z,10.77
2022-09-20T05:08:58.724Z,10.79
2022-09-20T05:11:44.081Z,10.80
2022-09-20T05:14:37.954Z,10.80
2022-09-20T05:17:17.544Z,10.70
2022-09-20T05:20:03.328Z,10.69
2022-09-20T05:23:01.669Z,10.73
2022-09-20T05:25:52.509Z,10.77
2022-09-20T05:28:26.879Z,10.75
2022-09-20T05:31:00.417Z,10.80
2022-09-20T05:33:38.858Z,10.85
2022-09-20T05:36:14.780Z,10.83
2022-09-20T05:38:49.965Z,10.72
2022-09-20T05:41:30.809Z,10.69
2022-09-20T05:44:09.475Z,10.75
2022-09-20T05:46:50.730Z,10.78
2022-09-20T05:49:34.597Z,10.71
2022-09-20T05:52:15.951Z,10.68
2022-09-20T05:55:01.446Z,10.70
2022-09-20T05:57:42.373Z,10.74
2022-09-20T06:00:14.662Z,10.71
2022-09-20T06:02:54.245Z,10.70
2022-09-20T06:05:34.975Z,10.69
2022-09-20T06:08:20.178Z,10.69
2022-09-20T06:11:19.482Z,10.65
2022-09-20T06:14:04.033Z,10.68
2022-09-20T06:16:44.959Z,10.69
2022-09-20T06:19:21.688Z,10.75
2022-09-20T06:21:55.188Z,10.80
2022-09-20T06:24:37.699Z,10.81
2022-09-20T06:27:12.113Z,10.86
2022-09-20T06:29:46.035Z,10.85
2022-09-20T06:32:18.061Z,10.84
2022-09-20T06:34:47.514Z,10.93
2022-09-20T06:37:55.164Z,10.84
2022-09-20T06:40:52.034Z,10.99
2022-09-20T06:43:20.155Z,11.02
2022-09-20T06:45:48.568Z,11.07
2022-09-20T06:48:16.874Z,11.10
2022-09-20T06:50:45.501Z,11.11
2022-09-20T06:53:19.239Z,11.04
2022-09-20T06:55:48.276Z,11.10
2022-09-20T06:58:16.527Z,11.17
2022-09-20T07:00:45.084Z,11.24
2022-09-20T07:03:13.791Z,11.16
2022-09-20T07:05:42.264Z,11.16
2022-09-20T07:08:10.758Z,11.33
2022-09-20T07:10:41.362Z,11.36
2022-09-20T07:13:12.336Z,11.44
2022-09-20T07:15:40.890Z,11.45
2022-09-20T07:18:09.276Z,11.42
2022-09-20T07:20:37.534Z,11.43
2022-09-20T07:23:05.727Z,11.48
2022-09-20T07:25:34.402Z,11.64
2022-09-20T07:28:04.458Z,11.67
2022-09-20T07:30:32.711Z,11.59
2022-09-20T07:33:01.482Z,11.58
2022-09-20T07:35:29.910Z,11.57
2022-09-20T07:37:58.862Z,11.62
2022-09-20T07:40:27.436Z,11.65
2022-09-20T07:42:58.398Z,11.69
2022-09-20T07:45:28.243Z,11.73
2022-09-20T07:47:58.292Z,11.81
2022-09-20T07:50:26.744Z,11.85
2022-09-20T07:52:57.458Z,11.84
2022-09-20T07:55:25.731Z,11.96
2022-09-20T07:57:54.613Z,11.93
2022-09-20T08:00:22.924Z,12.03
2022-09-20T08:02:59.504Z,12.06
2022-09-20T08:05:27.740Z,12.15
2022-09-20T08:07:56.878Z,12.22
2022-09-20T08:10:25.510Z,12.30
2022-09-20T08:15:42.418Z,12.37
2022-09-20T08:18:13.480Z,12.42
2022-09-20T08:20:41.790Z,12.54
2022-09-20T08:23:22.939Z,12.44
2022-09-20T08:25:51.474Z,12.55
2022-09-20T08:28:19.624Z,12.65
2022-09-20T08:30:47.754Z,12.71
2022-09-20T08:33:17.464Z,12.75
2022-09-20T08:35:45.678Z,12.83
2022-09-20T08:41:06.071Z,12.89
2022-09-20T08:43:45.272Z,13.78
2022-09-20T08:46:23.234Z,14.58
2022-09-20T08:48:53.566Z,15.04
2022-09-20T08:51:23.649Z,15.26
2022-09-20T08:53:54.818Z,14.88
2022-09-20T08:56:23.994Z,14.58
2022-09-20T08:58:53.518Z,14.52
2022-09-20T09:01:25.278Z,14.52
2022-09-20T09:04:00.813Z,14.59
2022-09-20T09:06:29.227Z,14.60
2022-09-20T09:09:00.557Z,14.67
2022-09-20T09:11:29.783Z,14.82
2022-09-20T09:14:01.709Z,14.76
2022-09-20T09:16:35.509Z,14.83
2022-09-20T09:19:37.043Z,14.80
2022-09-20T09:22:07.050Z,14.79
2022-09-20T09:24:35.662Z,14.75
2022-09-20T09:27:10.604Z,14.68
2022-09-20T09:29:51.021Z,14.74
2022-09-20T09:32:25.061Z,14.93
2022-09-20T09:34:55.061Z,14.90
2022-09-20T09:37:28.664Z,14.91
2022-09-20T09:40:16.779Z,14.84
2022-09-20T09:42:53.222Z,14.79
2022-09-20T09:45:34.846Z,14.95
2022-09-20T09:48:05.294Z,14.97
2022-09-20T09:50:35.760Z,14.96
2022-09-20T09:53:11.462Z,14.99
2022-09-20T09:55:54.455Z,15.00
2022-09-20T09:58:33.107Z,15.04
2022-09-20T10:01:06.318Z,15.07
2022-09-20T10:03:52.961Z,15.14
2022-09-20T10:06:30.656Z,15.13
2022-09-20T10:09:30.294Z,15.12
2022-09-20T10:12:15.764Z,15.25
2022-09-20T10:14:59.208Z,15.14
2022-09-20T10:17:40.908Z,15.29
2022-09-20T10:20:28.307Z,15.17
2022-09-20T10:23:39.504Z,15.18
2022-09-20T10:26:04.712Z,15.24
2022-09-20T10:28:51.573Z,15.22
2022-09-20T10:31:35.845Z,15.27
2022-09-20T10:34:31.172Z,15.29
2022-09-20T10:37:01.708Z,15.23
2022-09-20T10:39:35.042Z,15.30
2022-09-20T10:42:32.247Z,15.36
2022-09-20T10:45:10.929Z,15.29
2022-09-20T10:47:48.085Z,15.36
2022-09-20T10:50:29.820Z,15.47
2022-09-20T10:53:12.042Z,15.48
2022-09-20T10:55:51.337Z,15.53
2022-09-20T10:58:46.818Z,15.52
2022-09-20T11:01:21.092Z,15.63
2022-09-20T11:04:03.710Z,15.69
2022-09-20T11:06:44.673Z,15.68
2022-09-20T11:09:18.284Z,15.66
2022-09-20T11:11:51.618Z,15.61
2022-09-20T11:14:23.863Z,15.50
2022-09-20T11:16:56.334Z,15.51
2022-09-20T11:19:31.898Z,15.60
2022-09-20T11:22:10.183Z,15.64
2022-09-20T11:24:43.054Z,15.79
2022-09-20T11:27:19.971Z,15.68
2022-09-20T11:29:53.243Z,15.59
2022-09-20T11:32:27.623Z,15.61
2022-09-20T11:34:58.601Z,15.53
2022-09-20T11:37:34.535Z,15.63
2022-09-20T11:40:10.333Z,15.74
2022-09-20T11:42:42.405Z,15.88
2022-09-20T11:45:13.645Z,15.92
2022-09-20T11:47:55.297Z,15.88
2022-09-20T11:51:05.999Z,15.99
2022-09-20T11:53:58.097Z,15.95
2022-09-20T11:56:29.211Z,16.10
2022-09-20T11:59:01.618Z,16.25
2022-09-20T12:01:32.847Z,16.21
2022-09-20T12:04:30.741Z,15.98
2022-09-20T12:07:07.429Z,15.93
2022-09-20T12:09:41.079Z,16.03
2022-09-20T12:12:30.731Z,16.09
2022-09-20T12:15:02.943Z,16.13
2022-09-20T12:18:09.763Z,16.13
2022-09-20T12:21:00.438Z,16.28
2022-09-20T12:24:11.223Z,16.31
2022-09-20T12:26:45.829Z,16.45
2022-09-20T12:29:55.601Z,16.54
2022-09-20T12:32:56.483Z,16.49
2022-09-20T12:36:01.947Z,16.22
2022-09-20T12:38:43.256Z,16.28
2022-09-20T12:41:26.051Z,16.36
2022-09-20T12:44:03.044Z,16.33
2022-09-20T12:46:35.865Z,16.40
2022-09-20T12:49:48.510Z,16.46
2022-09-20T12:53:07.494Z,16.38
2022-09-20T12:55:50.465Z,16.51
2022-09-20T12:58:23.629Z,16.59
2022-09-20T13:01:35.451Z,16.54
2022-09-20T13:04:53.174Z,16.63
2022-09-20T13:07:35.899Z,16.72
2022-09-20T13:10:24.093Z,16.72
2022-09-20T13:12:55.876Z,16.78
2022-09-20T13:15:24.330Z,16.76
2022-09-20T13:17:56.480Z,16.71
2022-09-20T13:20:30.170Z,16.74
2022-09-20T13:23:00.627Z,16.74
2022-09-20T13:25:29.739Z,16.73
2022-09-20T13:28:08.705Z,16.60
2022-09-20T13:30:37.513Z,16.59
2022-09-20T13:33:23.308Z,16.68
2022-09-20T13:35:57.270Z,16.77
2022-09-20T13:38:30.132Z,16.87
2022-09-20T13:41:06.462Z,16.90
2022-09-20T13:43:39.044Z,16.77
2022-09-20T13:46:12.669Z,16.67
2022-09-20T13:48:41.594Z,16.65
2022-09-20T13:51:19.957Z,16.55
2022-09-20T13:53:48.558Z,16.47
2022-09-20T13:56:22.024Z,16.49
2022-09-20T13:58:51.495Z,16.58
2022-09-20T14:01:30.155Z,16.47
2022-09-20T14:04:05.011Z,16.42
2022-09-20T14:06:35.772Z,16.44
2022-09-20T14:09:11.110Z,16.51
2022-09-20T14:11:41.421Z,16.56
2022-09-20T14:14:12.879Z,16.57
2022-09-20T14:16:45.440Z,16.57
2022-09-20T14:19:16.904Z,16.52
2022-09-20T14:21:47.128Z,16.56
2022-09-20T14:24:29.027Z,16.58
2022-09-20T14:27:16.721Z,16.43
2022-09-20T14:29:46.669Z,16.49
2022-09-20T14:32:27.214Z,16.47
2022-09-20T14:35:02.893Z,16.48
2022-09-20T14:37:35.271Z,16.45
2022-09-20T14:40:07.430Z,16.43
2022-09-20T14:42:38.779Z,16.41
2022-09-20T14:45:08.482Z,16.38
2022-09-20T14:47:50.848Z,16.31
2022-09-20T14:50:26.382Z,16.31
2022-09-20T14:53:23.364Z,16.30
2022-09-20T14:56:00.719Z,16.33
2022-09-20T14:58:29.204Z,16.30
2022-09-20T15:01:01.849Z,16.27
2022-09-20T15:03:33.127Z,16.26
2022-09-20T15:06:01.519Z,16.20
2022-09-20T15:08:31.321Z,16.15
2022-09-20T15:11:00.719Z,16.20
2022-09-20T15:13:28.935Z,16.22
2022-09-20T15:15:57.306Z,16.15
2022-09-20T15:18:28.606Z,16.15
2022-09-20T15:20:57.026Z,16.16
2022-09-20T15:23:25.446Z,16.14
2022-09-20T15:25:56.554Z,16.11
2022-09-20T15:28:26.933Z,16.09
2022-09-20T15:30:55.533Z,16.08
2022-09-20T15:33:23.665Z,16.01
2022-09-20T15:35:51.925Z,16.02
2022-09-20T15:38:20.587Z,16.00
2022-09-20T15:40:50.146Z,16.02
2022-09-20T15:43:24.301Z,15.96
2022-09-20T15:45:54.619Z,15.96
2022-09-20T15:48:24.511Z,15.96
2022-09-20T15:51:03.385Z,15.88
2022-09-20T15:53:34.351Z,15.84
2022-09-20T15:56:04.124Z,15.70
2022-09-20T15:58:36.731Z,15.53
2022-09-20T16:01:07.098Z,15.42
2022-09-20T16:03:36.547Z,15.44
2022-09-20T16:06:07.461Z,15.30
2022-09-20T16:08:37.206Z,15.30
2022-09-20T16:11:06.303Z,15.30
2022-09-20T16:13:37.798Z,15.17
2022-09-20T16:16:09.747Z,15.00
2022-09-20T16:18:55.962Z,15.02
2022-09-20T16:21:24.221Z,14.99
2022-09-20T16:23:54.209Z,15.01
2022-09-20T16:26:24.112Z,15.02
2022-09-20T16:28:55.812Z,14.90
2022-09-20T16:31:34.819Z,14.82
2022-09-20T16:34:04.193Z,14.86
2022-09-20T16:36:32.485Z,14.74
2022-09-20T16:39:01.424Z,14.68
2022-09-20T16:41:31.115Z,14.60
2022-09-20T16:44:00.700Z,14.69
2022-09-20T16:46:29.214Z,14.67
2022-09-20T16:49:00.926Z,14.61
2022-09-20T16:51:33.786Z,14.63
2022-09-20T16:54:06.907Z,14.51
2022-09-20T16:56:36.357Z,14.58
2022-09-20T16:59:07.478Z,14.58
2022-09-20T17:01:36.799Z,14.55
2022-09-20T17:04:06.960Z,14.60
2022-09-20T17:06:36.395Z,14.60
2022-09-20T17:09:05.879Z,14.64
2022-09-20T17:11:37.995Z,14.58
2022-09-20T17:14:09.713Z,14.56
2022-09-20T17:16:40.155Z,14.46
2022-09-20T17:19:11.225Z,14.41
2022-09-20T17:21:46.417Z,14.41
2022-09-20T17:24:14.954Z,14.47
2022-09-20T17:26:45.620Z,14.37
2022-09-20T17:29:17.717Z,14.31
2022-09-20T17:31:54.013Z,14.32
2022-09-20T17:34:23.158Z,14.33
2022-09-20T17:36:51.576Z,14.32
2022-09-20T17:39:19.998Z,14.33
2022-09-20T17:41:49.749Z,14.28
2022-09-20T17:44:19.731Z,14.25
2022-09-20T17:46:50.025Z,14.21
2022-09-20T17:49:20.967Z,14.16
2022-09-20T17:51:50.344Z,14.19
2022-09-20T17:54:19.341Z,14.13
2022-09-20T17:56:50.553Z,14.17
2022-09-20T17:59:20.986Z,14.15
2022-09-20T18:01:51.479Z,14.09
2022-09-20T18:04:21.315Z,14.07
2022-09-20T18:06:51.791Z,14.03
2022-09-20T18:09:23.530Z,13.99
2022-09-20T18:11:53.738Z,13.99
2022-09-20T18:14:24.637Z,13.93
2022-09-20T18:16:54.048Z,13.96
2022-09-20T18:19:22.904Z,13.90
2022-09-20T18:21:51.933Z,13.86
2022-09-20T18:24:20.544Z,13.82
2022-09-20T18:26:48.698Z,13.86
2022-09-20T18:29:18.583Z,13.89
2022-09-20T18:31:50.210Z,13.92
2022-09-20T18:34:21.999Z,13.96
2022-09-20T18:36:53.165Z,13.99
2022-09-20T18:39:22.173Z,13.94
2022-09-20T18:41:51.025Z,13.90
2022-09-20T18:44:19.701Z,13.79
2022-09-20T18:46:49.885Z,13.72
2022-09-20T18:49:18.051Z,13.73
2022-09-20T18:51:47.546Z,13.77
2022-09-20T18:54:16.389Z,13.76
2022-09-20T18:56:46.817Z,13.73
2022-09-20T18:59:17.084Z,13.65
2022-09-20T19:02:07.208Z,13.59
2022-09-20T19:04:52.793Z,13.62
2022-09-20T19:07:29.061Z,13.64
2022-09-20T19:10:05.363Z,13.66
2022-09-20T19:12:40.530Z,13.64
2022-09-20T19:15:37.787Z,13.64
2022-09-20T19:18:24.235Z,13.64
2022-09-20T19:20:59.563Z,13.58
2022-09-20T19:23:49.807Z,13.42
2022-09-20T19:26:23.211Z,13.42
2022-09-20T19:28:52.398Z,13.41
2022-09-20T19:31:26.625Z,13.47
2022-09-20T19:33:58.238Z,13.53
2022-09-20T19:36:40.429Z,13.41
2022-09-20T19:39:15.704Z,13.47
2022-09-20T19:41:52.135Z,13.36
2022-09-20T19:44:34.110Z,13.29
2022-09-20T19:47:15.530Z,13.26
2022-09-20T19:49:53.631Z,13.22
2022-09-20T19:52:22.968Z,13.22
2022-09-20T19:54:52.249Z,13.18
2022-09-20T19:57:22.941Z,13.17
2022-09-20T19:59:52.374Z,13.00
2022-09-20T20:02:20.979Z,12.85
2022-09-20T20:04:51.841Z,12.69
2022-09-20T20:07:31.291Z,12.59
2022-09-20T20:10:07.540Z,12.48
2022-09-20T20:12:44.814Z,12.42
2022-09-20T20:15:23.166Z,12.30
2022-09-20T20:17:59.088Z,12.28
2022-09-20T20:20:37.954Z,12.24
2022-09-20T20:23:33.784Z,12.19
2022-09-20T20:26:06.953Z,12.13
2022-09-20T20:28:36.064Z,12.12
2022-09-20T20:31:04.265Z,12.15
2022-09-20T20:33:33.742Z,12.17
2022-09-20T20:36:03.707Z,12.16
2022-09-20T20:38:32.673Z,12.27
2022-09-20T20:41:04.774Z,12.32
2022-09-20T20:43:34.442Z,12.38
2022-09-20T20:46:02.513Z,12.26
2022-09-20T20:48:31.077Z,12.14
2022-09-20T20:51:05.719Z,11.99
2022-09-20T20:53:35.517Z,11.86
2022-09-20T20:56:07.426Z,11.78
2022-09-20T20:58:38.383Z,11.68
2022-09-20T21:01:11.736Z,11.66
2022-09-20T21:03:46.137Z,11.51
2022-09-20T21:06:16.529Z,11.50
2022-09-20T21:08:49.272Z,11.44
2022-09-20T21:11:19.999Z,11.36
2022-09-20T21:13:49.119Z,11.37
2022-09-20T21:16:19.051Z,11.34
2022-09-20T21:18:49.588Z,11.24
2022-09-20T21:21:21.057Z,11.24
2022-09-20T21:23:51.286Z,11.25
2022-09-20T21:26:20.333Z,11.40
2022-09-20T21:28:55.616Z,11.34
2022-09-20T21:31:24.398Z,11.28
2022-09-20T21:33:52.886Z,11.07
2022-09-20T21:36:25.983Z,11.17
2022-09-20T21:38:54.470Z,11.15
2022-09-20T21:41:24.445Z,11.24
2022-09-20T21:43:55.239Z,11.11
2022-09-20T21:46:25.835Z,11.11
2022-09-20T21:48:53.968Z,11.09
2022-09-20T21:51:25.415Z,11.01
2022-09-20T21:53:56.574Z,11.04
2022-09-20T21:56:26.524Z,11.02
2022-09-20T21:58:54.893Z,10.89
2022-09-20T22:01:24.731Z,10.89
2022-09-20T22:03:55.156Z,10.94
2022-09-20T22:06:27.211Z,10.78
2022-09-20T22:08:58.561Z,10.76
2022-09-20T22:11:28.659Z,10.67
2022-09-20T22:13:58.941Z,10.62
2022-09-20T22:16:28.528Z,10.63
2022-09-20T22:18:57.320Z,10.55
2022-09-20T22:21:28.810Z,10.48
2022-09-20T22:23:59.163Z,10.47
2022-09-20T22:26:30.202Z,10.46
2022-09-20T22:28:58.738Z,10.47
2022-09-20T22:31:29.267Z,10.40
2022-09-20T22:33:58.919Z,10.49
2022-09-20T22:36:31.141Z,10.39
2022-09-20T22:38:59.391Z,10.34
2022-09-20T22:41:28.149Z,10.29
2022-09-20T22:43:56.707Z,10.38
2022-09-20T22:46:26.984Z,10.35
2022-09-20T22:48:55.395Z,10.25
2022-09-20T22:51:25.631Z,10.29
2022-09-20T22:53:55.845Z,10.24
2022-09-20T22:56:25.852Z,10.16
2022-09-20T22:58:56.011Z,10.10
2022-09-20T23:01:25.719Z,10.12
2022-09-20T23:03:56.324Z,10.06
2022-09-20T23:06:26.953Z,10.10
2022-09-20T23:08:58.340Z,10.12
2022-09-20T23:11:27.178Z,10.14
2022-09-20T23:13:56.665Z,10.14
2022-09-20T23:16:26.627Z,10.14
2022-09-20T23:18:55.742Z,10.16
2022-09-20T23:21:24.505Z,10.16
2022-09-20T23:23:54.702Z,10.13
2022-09-20T23:26:25.659Z,10.24
2022-09-20T23:28:55.957Z,10.12
2022-09-20T23:31:24.659Z,10.07
2022-09-20T23:33:55.143Z,10.03
2022-09-20T23:36:24.166Z,10.06
2022-09-20T23:38:53.007Z,10.15
2022-09-20T23:41:24.509Z,10.23
2022-09-20T23:43:52.787Z,10.47
2022-09-20T23:46:22.922Z,10.53
2022-09-20T23:48:51.595Z,10.44
2022-09-20T23:51:22.526Z,10.28
2022-09-20T23:53:51.390Z,10.33
2022-09-20T23:56:20.244Z,10.21
2022-09-20T23:58:50.234Z,10.19
